sensor_id;sensor_type;location;lat;lon;timestamp;P1;durP1;ratioP1;P2;durP2;ratioP2
72517;SDS011;60540;51.178;6.738;2023-07-24T00:01:52;5.05;;;1.90;;
72517;SDS011;60540;51.178;6.738;2023-07-24T00:04:18;5.45;;;1.92;;
72517;SDS011;60540;51.178;6.738;2023-07-24T00:06:44;4.00;;;2.10;;
72517;SDS011;60540;51.178;6.738;2023-07-24T00:09:10;5.05;;;2.30;;
72517;SDS011;60540;51.178;6.738;2023-07-24T00:11:35;4.32;;;1.90;;
72517;SDS011;60540;51.178;6.738;2023-07-24T00:14:01;5.20;;;2.00;;
72517;SDS011;60540;51.178;6.738;2023-07-24T00:16:27;5.50;;;1.98;;
72517;SDS011;60540;51.178;6.738;2023-07-24T00:18:52;4.68;;;2.20;;
72517;SDS011;60540;51.178;6.738;2023-07-24T00:21:18;3.72;;;1.95;;
72517;SDS011;60540;51.178;6.738;2023-07-24T00:23:44;6.18;;;2.17;;
72517;SDS011;60540;51.178;6.738;2023-07-24T00:26:09;4.88;;;2.15;;
72517;SDS011;60540;51.178;6.738;2023-07-24T00:28:35;4.80;;;2.03;;
72517;SDS011;60540;51.178;6.738;2023-07-24T00:31:01;5.60;;;2.13;;
72517;SDS011;60540;51.178;6.738;2023-07-24T00:33:27;4.10;;;2.17;;
72517;SDS011;60540;51.178;6.738;2023-07-24T00:35:56;4.70;;;2.08;;
72517;SDS011;60540;51.178;6.738;2023-07-24T00:38:23;5.22;;;2.22;;
72517;SDS011;60540;51.178;6.738;2023-07-24T00:40:49;4.20;;;1.98;;
72517;SDS011;60540;51.178;6.738;2023-07-24T00:43:16;4.03;;;1.90;;
72517;SDS011;60540;51.178;6.738;2023-07-24T00:45:42;3.55;;;1.95;;
72517;SDS011;60540;51.178;6.738;2023-07-24T00:48:08;4.55;;;2.13;;
72517;SDS011;60540;51.178;6.738;2023-07-24T00:50:34;5.15;;;2.03;;
72517;SDS011;60540;51.178;6.738;2023-07-24T00:53:01;3.92;;;2.10;;
72517;SDS011;60540;51.178;6.738;2023-07-24T00:55:27;3.67;;;1.90;;
72517;SDS011;60540;51.178;6.738;2023-07-24T00:57:53;4.47;;;1.70;;
72517;SDS011;60540;51.178;6.738;2023-07-24T01:00:19;4.20;;;2.00;;
72517;SDS011;60540;51.178;6.738;2023-07-24T01:02:45;4.85;;;2.33;;
72517;SDS011;60540;51.178;6.738;2023-07-24T01:05:11;5.25;;;1.67;;
72517;SDS011;60540;51.178;6.738;2023-07-24T01:07:38;5.70;;;2.00;;
72517;SDS011;60540;51.178;6.738;2023-07-24T01:10:04;5.25;;;2.17;;
72517;SDS011;60540;51.178;6.738;2023-07-24T01:12:35;6.47;;;1.90;;
72517;SDS011;60540;51.178;6.738;2023-07-24T01:15:20;5.65;;;2.05;;
72517;SDS011;60540;51.178;6.738;2023-07-24T01:18:03;4.75;;;1.70;;
72517;SDS011;60540;51.178;6.738;2023-07-24T01:20:31;3.88;;;1.92;;
72517;SDS011;60540;51.178;6.738;2023-07-24T01:28:26;5.28;;;1.90;;
72517;SDS011;60540;51.178;6.738;2023-07-24T01:30:52;4.00;;;2.05;;
72517;SDS011;60540;51.178;6.738;2023-07-24T01:33:18;3.75;;;1.73;;
72517;SDS011;60540;51.178;6.738;2023-07-24T01:35:44;4.10;;;2.00;;
72517;SDS011;60540;51.178;6.738;2023-07-24T01:38:11;6.18;;;2.08;;
72517;SDS011;60540;51.178;6.738;2023-07-24T01:40:41;5.20;;;2.40;;
72517;SDS011;60540;51.178;6.738;2023-07-24T01:43:08;6.93;;;2.60;;
72517;SDS011;60540;51.178;6.738;2023-07-24T01:45:34;4.57;;;2.10;;
72517;SDS011;60540;51.178;6.738;2023-07-24T01:48:02;5.55;;;2.45;;
72517;SDS011;60540;51.178;6.738;2023-07-24T01:50:29;3.92;;;2.10;;
72517;SDS011;60540;51.178;6.738;2023-07-24T01:52:54;7.03;;;2.58;;
72517;SDS011;60540;51.178;6.738;2023-07-24T01:55:20;5.38;;;2.20;;
72517;SDS011;60540;51.178;6.738;2023-07-24T01:57:46;5.05;;;2.22;;
72517;SDS011;60540;51.178;6.738;2023-07-24T02:00:11;6.53;;;2.50;;
72517;SDS011;60540;51.178;6.738;2023-07-24T02:02:37;4.43;;;2.08;;
72517;SDS011;60540;51.178;6.738;2023-07-24T02:05:03;5.07;;;2.33;;
72517;SDS011;60540;51.178;6.738;2023-07-24T02:07:29;3.90;;;2.03;;
72517;SDS011;60540;51.178;6.738;2023-07-24T02:09:55;4.18;;;2.25;;
72517;SDS011;60540;51.178;6.738;2023-07-24T02:12:21;6.18;;;2.40;;
72517;SDS011;60540;51.178;6.738;2023-07-24T02:14:46;5.45;;;2.10;;
72517;SDS011;60540;51.178;6.738;2023-07-24T02:17:17;5.75;;;2.00;;
72517;SDS011;60540;51.178;6.738;2023-07-24T02:19:43;4.85;;;2.15;;
72517;SDS011;60540;51.178;6.738;2023-07-24T02:22:09;4.97;;;2.33;;
72517;SDS011;60540;51.178;6.738;2023-07-24T02:24:35;4.93;;;2.55;;
72517;SDS011;60540;51.178;6.738;2023-07-24T02:27:01;5.57;;;2.60;;
72517;SDS011;60540;51.178;6.738;2023-07-24T02:29:27;4.20;;;2.20;;
72517;SDS011;60540;51.178;6.738;2023-07-24T02:31:53;6.20;;;2.50;;
72517;SDS011;60540;51.178;6.738;2023-07-24T02:34:19;5.60;;;2.30;;
72517;SDS011;60540;51.178;6.738;2023-07-24T02:36:50;5.80;;;2.88;;
72517;SDS011;60540;51.178;6.738;2023-07-24T02:39:15;5.45;;;2.80;;
72517;SDS011;60540;51.178;6.738;2023-07-24T02:41:41;10.63;;;2.78;;
72517;SDS011;60540;51.178;6.738;2023-07-24T02:44:07;7.97;;;2.42;;
72517;SDS011;60540;51.178;6.738;2023-07-24T02:46:33;12.70;;;3.00;;
72517;SDS011;60540;51.178;6.738;2023-07-24T02:48:58;6.43;;;2.40;;
72517;SDS011;60540;51.178;6.738;2023-07-24T02:51:24;5.78;;;2.42;;
72517;SDS011;60540;51.178;6.738;2023-07-24T02:53:50;6.80;;;2.60;;
72517;SDS011;60540;51.178;6.738;2023-07-24T02:56:16;6.57;;;2.40;;
72517;SDS011;60540;51.178;6.738;2023-07-24T02:58:41;5.90;;;2.38;;
72517;SDS011;60540;51.178;6.738;2023-07-24T03:01:07;5.47;;;2.42;;
72517;SDS011;60540;51.178;6.738;2023-07-24T03:03:33;6.97;;;2.55;;
72517;SDS011;60540;51.178;6.738;2023-07-24T03:06:00;6.82;;;2.83;;
72517;SDS011;60540;51.178;6.738;2023-07-24T03:08:25;10.35;;;2.55;;
72517;SDS011;60540;51.178;6.738;2023-07-24T03:10:51;5.68;;;2.17;;
72517;SDS011;60540;51.178;6.738;2023-07-24T03:13:17;5.60;;;2.97;;
72517;SDS011;60540;51.178;6.738;2023-07-24T03:15:43;4.35;;;2.15;;
72517;SDS011;60540;51.178;6.738;2023-07-24T03:18:08;6.65;;;2.70;;
72517;SDS011;60540;51.178;6.738;2023-07-24T03:20:34;6.20;;;2.80;;
72517;SDS011;60540;51.178;6.738;2023-07-24T03:23:00;5.90;;;2.78;;
72517;SDS011;60540;51.178;6.738;2023-07-24T03:25:25;5.88;;;2.92;;
72517;SDS011;60540;51.178;6.738;2023-07-24T03:27:51;6.05;;;3.10;;
72517;SDS011;60540;51.178;6.738;2023-07-24T03:30:17;5.28;;;2.28;;
72517;SDS011;60540;51.178;6.738;2023-07-24T03:32:42;5.10;;;2.50;;
72517;SDS011;60540;51.178;6.738;2023-07-24T03:35:08;6.07;;;2.22;;
72517;SDS011;60540;51.178;6.738;2023-07-24T03:37:34;5.00;;;2.70;;
72517;SDS011;60540;51.178;6.738;2023-07-24T03:40:01;5.80;;;2.83;;
72517;SDS011;60540;51.178;6.738;2023-07-24T03:42:28;6.78;;;3.38;;
72517;SDS011;60540;51.178;6.738;2023-07-24T03:44:56;5.68;;;2.85;;
72517;SDS011;60540;51.178;6.738;2023-07-24T03:47:22;6.90;;;2.47;;
72517;SDS011;60540;51.178;6.738;2023-07-24T03:49:49;6.38;;;2.90;;
72517;SDS011;60540;51.178;6.738;2023-07-24T03:52:15;6.10;;;2.67;;
72517;SDS011;60540;51.178;6.738;2023-07-24T03:54:41;7.95;;;2.97;;
72517;SDS011;60540;51.178;6.738;2023-07-24T03:57:07;8.35;;;3.03;;
72517;SDS011;60540;51.178;6.738;2023-07-24T03:59:33;13.77;;;3.00;;
72517;SDS011;60540;51.178;6.738;2023-07-24T04:01:58;5.53;;;2.70;;
72517;SDS011;60540;51.178;6.738;2023-07-24T04:04:24;5.78;;;2.83;;
72517;SDS011;60540;51.178;6.738;2023-07-24T04:06:50;5.75;;;2.47;;
72517;SDS011;60540;51.178;6.738;2023-07-24T04:09:16;6.07;;;2.75;;
72517;SDS011;60540;51.178;6.738;2023-07-24T04:11:44;8.77;;;2.53;;
72517;SDS011;60540;51.178;6.738;2023-07-24T04:14:10;6.22;;;2.70;;
72517;SDS011;60540;51.178;6.738;2023-07-24T04:16:36;5.85;;;2.58;;
72517;SDS011;60540;51.178;6.738;2023-07-24T04:19:02;5.88;;;3.30;;
72517;SDS011;60540;51.178;6.738;2023-07-24T04:21:28;8.00;;;3.10;;
72517;SDS011;60540;51.178;6.738;2023-07-24T04:23:53;6.25;;;2.58;;
72517;SDS011;60540;51.178;6.738;2023-07-24T04:26:19;5.55;;;2.75;;
72517;SDS011;60540;51.178;6.738;2023-07-24T04:28:45;5.60;;;2.90;;
72517;SDS011;60540;51.178;6.738;2023-07-24T04:31:11;5.55;;;2.47;;
72517;SDS011;60540;51.178;6.738;2023-07-24T04:33:36;8.52;;;3.00;;
72517;SDS011;60540;51.178;6.738;2023-07-24T04:36:02;6.25;;;2.78;;
72517;SDS011;60540;51.178;6.738;2023-07-24T04:38:28;5.95;;;2.90;;
72517;SDS011;60540;51.178;6.738;2023-07-24T04:40:54;7.57;;;3.05;;
72517;SDS011;60540;51.178;6.738;2023-07-24T04:43:19;6.20;;;2.70;;
72517;SDS011;60540;51.178;6.738;2023-07-24T04:45:45;5.38;;;2.63;;
72517;SDS011;60540;51.178;6.738;2023-07-24T04:48:11;8.07;;;3.22;;
72517;SDS011;60540;51.178;6.738;2023-07-24T04:50:36;6.68;;;3.63;;
72517;SDS011;60540;51.178;6.738;2023-07-24T04:53:03;6.45;;;2.60;;
72517;SDS011;60540;51.178;6.738;2023-07-24T04:55:28;6.55;;;3.20;;
72517;SDS011;60540;51.178;6.738;2023-07-24T04:57:54;5.85;;;3.22;;
72517;SDS011;60540;51.178;6.738;2023-07-24T05:00:20;7.88;;;2.90;;
72517;SDS011;60540;51.178;6.738;2023-07-24T05:02:45;6.18;;;3.20;;
72517;SDS011;60540;51.178;6.738;2023-07-24T05:05:11;7.45;;;3.30;;
72517;SDS011;60540;51.178;6.738;2023-07-24T05:07:37;6.07;;;2.92;;
72517;SDS011;60540;51.178;6.738;2023-07-24T05:10:03;6.78;;;2.78;;
72517;SDS011;60540;51.178;6.738;2023-07-24T05:12:29;6.45;;;3.10;;
72517;SDS011;60540;51.178;6.738;2023-07-24T05:14:54;5.43;;;2.60;;
72517;SDS011;60540;51.178;6.738;2023-07-24T05:17:20;6.07;;;2.40;;
72517;SDS011;60540;51.178;6.738;2023-07-24T05:19:46;7.05;;;3.20;;
72517;SDS011;60540;51.178;6.738;2023-07-24T05:22:11;9.35;;;3.13;;
72517;SDS011;60540;51.178;6.738;2023-07-24T05:24:37;7.18;;;3.88;;
72517;SDS011;60540;51.178;6.738;2023-07-24T05:27:03;7.90;;;3.47;;
72517;SDS011;60540;51.178;6.738;2023-07-24T05:29:30;6.40;;;3.30;;
72517;SDS011;60540;51.178;6.738;2023-07-24T05:31:56;6.50;;;3.20;;
72517;SDS011;60540;51.178;6.738;2023-07-24T05:34:21;9.85;;;3.28;;
72517;SDS011;60540;51.178;6.738;2023-07-24T05:36:47;6.72;;;3.05;;
72517;SDS011;60540;51.178;6.738;2023-07-24T05:39:12;7.07;;;2.97;;
72517;SDS011;60540;51.178;6.738;2023-07-24T05:41:38;8.38;;;3.17;;
72517;SDS011;60540;51.178;6.738;2023-07-24T05:44:05;8.10;;;3.47;;
72517;SDS011;60540;51.178;6.738;2023-07-24T05:46:31;7.07;;;3.38;;
72517;SDS011;60540;51.178;6.738;2023-07-24T05:48:57;5.22;;;2.95;;
72517;SDS011;60540;51.178;6.738;2023-07-24T05:51:22;8.13;;;4.60;;
72517;SDS011;60540;51.178;6.738;2023-07-24T05:53:48;8.60;;;4.60;;
72517;SDS011;60540;51.178;6.738;2023-07-24T05:56:14;6.57;;;3.45;;
72517;SDS011;60540;51.178;6.738;2023-07-24T05:58:40;8.15;;;3.60;;
72517;SDS011;60540;51.178;6.738;2023-07-24T06:01:06;6.30;;;2.90;;
72517;SDS011;60540;51.178;6.738;2023-07-24T06:03:35;6.63;;;3.10;;
72517;SDS011;60540;51.178;6.738;2023-07-24T06:06:01;5.78;;;2.50;;
72517;SDS011;60540;51.178;6.738;2023-07-24T06:08:27;8.15;;;2.90;;
72517;SDS011;60540;51.178;6.738;2023-07-24T06:10:53;6.22;;;2.88;;
72517;SDS011;60540;51.178;6.738;2023-07-24T06:13:19;9.18;;;2.83;;
72517;SDS011;60540;51.178;6.738;2023-07-24T06:15:46;5.65;;;2.90;;
72517;SDS011;60540;51.178;6.738;2023-07-24T06:18:13;7.80;;;3.10;;
72517;SDS011;60540;51.178;6.738;2023-07-24T06:20:39;7.57;;;2.80;;
72517;SDS011;60540;51.178;6.738;2023-07-24T06:23:05;5.97;;;2.83;;
72517;SDS011;60540;51.178;6.738;2023-07-24T06:25:31;9.38;;;2.55;;
72517;SDS011;60540;51.178;6.738;2023-07-24T06:27:57;6.10;;;2.90;;
72517;SDS011;60540;51.178;6.738;2023-07-24T06:30:23;6.53;;;2.35;;
72517;SDS011;60540;51.178;6.738;2023-07-24T06:32:48;5.38;;;2.45;;
72517;SDS011;60540;51.178;6.738;2023-07-24T06:35:14;4.45;;;2.20;;
72517;SDS011;60540;51.178;6.738;2023-07-24T06:37:40;5.75;;;2.40;;
72517;SDS011;60540;51.178;6.738;2023-07-24T06:40:06;5.00;;;2.40;;
72517;SDS011;60540;51.178;6.738;2023-07-24T06:44:58;6.40;;;2.80;;
72517;SDS011;60540;51.178;6.738;2023-07-24T06:47:24;6.95;;;2.92;;
72517;SDS011;60540;51.178;6.738;2023-07-24T06:49:50;6.43;;;2.65;;
72517;SDS011;60540;51.178;6.738;2023-07-24T06:52:15;5.00;;;2.17;;
72517;SDS011;60540;51.178;6.738;2023-07-24T06:54:41;6.00;;;2.70;;
72517;SDS011;60540;51.178;6.738;2023-07-24T06:57:07;5.68;;;2.28;;
72517;SDS011;60540;51.178;6.738;2023-07-24T06:59:33;4.65;;;2.08;;
72517;SDS011;60540;51.178;6.738;2023-07-24T07:01:58;5.22;;;2.10;;
72517;SDS011;60540;51.178;6.738;2023-07-24T07:04:24;5.20;;;2.20;;
72517;SDS011;60540;51.178;6.738;2023-07-24T07:06:50;4.40;;;2.05;;
72517;SDS011;60540;51.178;6.738;2023-07-24T07:09:16;5.60;;;2.13;;
72517;SDS011;60540;51.178;6.738;2023-07-24T07:11:41;4.15;;;2.03;;
72517;SDS011;60540;51.178;6.738;2023-07-24T07:14:09;4.28;;;2.03;;
72517;SDS011;60540;51.178;6.738;2023-07-24T07:16:34;5.57;;;2.28;;
72517;SDS011;60540;51.178;6.738;2023-07-24T07:19:00;6.05;;;2.13;;
72517;SDS011;60540;51.178;6.738;2023-07-24T07:21:26;5.78;;;2.50;;
72517;SDS011;60540;51.178;6.738;2023-07-24T07:23:52;4.07;;;1.75;;
72517;SDS011;60540;51.178;6.738;2023-07-24T07:26:17;6.30;;;2.00;;
72517;SDS011;60540;51.178;6.738;2023-07-24T07:28:43;5.22;;;1.85;;
72517;SDS011;60540;51.178;6.738;2023-07-24T07:31:10;4.53;;;1.90;;
72517;SDS011;60540;51.178;6.738;2023-07-24T07:33:36;5.15;;;2.28;;
72517;SDS011;60540;51.178;6.738;2023-07-24T07:36:03;5.18;;;2.35;;
72517;SDS011;60540;51.178;6.738;2023-07-24T07:38:32;3.63;;;1.63;;
72517;SDS011;60540;51.178;6.738;2023-07-24T07:40:57;4.70;;;2.20;;
72517;SDS011;60540;51.178;6.738;2023-07-24T07:43:23;6.28;;;2.10;;
72517;SDS011;60540;51.178;6.738;2023-07-24T07:45:49;5.47;;;1.98;;
72517;SDS011;60540;51.178;6.738;2023-07-24T07:48:15;4.50;;;1.90;;
72517;SDS011;60540;51.178;6.738;2023-07-24T07:50:40;4.45;;;1.98;;
72517;SDS011;60540;51.178;6.738;2023-07-24T07:53:06;5.05;;;2.10;;
72517;SDS011;60540;51.178;6.738;2023-07-24T07:55:32;4.80;;;2.20;;
72517;SDS011;60540;51.178;6.738;2023-07-24T07:57:58;3.72;;;1.70;;
72517;SDS011;60540;51.178;6.738;2023-07-24T08:00:23;4.45;;;1.98;;
72517;SDS011;60540;51.178;6.738;2023-07-24T08:02:49;5.32;;;2.45;;
72517;SDS011;60540;51.178;6.738;2023-07-24T08:05:15;5.15;;;2.20;;
72517;SDS011;60540;51.178;6.738;2023-07-24T08:07:41;5.82;;;2.50;;
72517;SDS011;60540;51.178;6.738;2023-07-24T08:10:07;4.50;;;1.67;;
72517;SDS011;60540;51.178;6.738;2023-07-24T08:12:33;5.15;;;1.88;;
72517;SDS011;60540;51.178;6.738;2023-07-24T08:14:59;5.40;;;2.20;;
72517;SDS011;60540;51.178;6.738;2023-07-24T08:17:25;4.72;;;2.05;;
72517;SDS011;60540;51.178;6.738;2023-07-24T08:19:50;4.43;;;2.22;;
72517;SDS011;60540;51.178;6.738;2023-07-24T08:22:16;5.68;;;2.13;;
72517;SDS011;60540;51.178;6.738;2023-07-24T08:24:42;4.25;;;2.10;;
72517;SDS011;60540;51.178;6.738;2023-07-24T08:27:10;4.63;;;2.15;;
72517;SDS011;60540;51.178;6.738;2023-07-24T08:29:35;4.53;;;2.30;;
72517;SDS011;60540;51.178;6.738;2023-07-24T08:32:03;4.95;;;1.90;;
72517;SDS011;60540;51.178;6.738;2023-07-24T08:34:30;5.50;;;2.40;;
72517;SDS011;60540;51.178;6.738;2023-07-24T08:36:55;3.80;;;1.98;;
72517;SDS011;60540;51.178;6.738;2023-07-24T08:39:21;6.70;;;2.42;;
72517;SDS011;60540;51.178;6.738;2023-07-24T08:41:47;4.47;;;2.05;;
72517;SDS011;60540;51.178;6.738;2023-07-24T08:44:13;4.95;;;2.17;;
72517;SDS011;60540;51.178;6.738;2023-07-24T08:46:39;5.47;;;2.10;;
72517;SDS011;60540;51.178;6.738;2023-07-24T08:49:09;3.97;;;2.10;;
72517;SDS011;60540;51.178;6.738;2023-07-24T08:51:37;4.28;;;2.15;;
72517;SDS011;60540;51.178;6.738;2023-07-24T08:54:03;4.70;;;2.00;;
72517;SDS011;60540;51.178;6.738;2023-07-24T08:56:30;4.82;;;2.10;;
72517;SDS011;60540;51.178;6.738;2023-07-24T08:58:56;3.80;;;2.00;;
72517;SDS011;60540;51.178;6.738;2023-07-24T09:01:22;5.70;;;2.10;;
72517;SDS011;60540;51.178;6.738;2023-07-24T09:03:47;4.75;;;2.05;;
72517;SDS011;60540;51.178;6.738;2023-07-24T09:06:13;7.63;;;2.45;;
72517;SDS011;60540;51.178;6.738;2023-07-24T09:08:39;4.15;;;1.90;;
72517;SDS011;60540;51.178;6.738;2023-07-24T09:11:08;3.72;;;1.90;;
72517;SDS011;60540;51.178;6.738;2023-07-24T09:13:35;6.80;;;2.67;;
72517;SDS011;60540;51.178;6.738;2023-07-24T09:16:02;3.60;;;1.83;;
72517;SDS011;60540;51.178;6.738;2023-07-24T09:18:40;4.25;;;2.00;;
72517;SDS011;60540;51.178;6.738;2023-07-24T09:21:07;4.68;;;2.40;;
72517;SDS011;60540;51.178;6.738;2023-07-24T09:23:33;5.05;;;2.30;;
72517;SDS011;60540;51.178;6.738;2023-07-24T09:26:04;5.35;;;2.63;;
72517;SDS011;60540;51.178;6.738;2023-07-24T09:28:30;4.35;;;2.22;;
72517;SDS011;60540;51.178;6.738;2023-07-24T09:30:57;6.28;;;2.15;;
72517;SDS011;60540;51.178;6.738;2023-07-24T09:33:33;5.22;;;1.83;;
72517;SDS011;60540;51.178;6.738;2023-07-24T09:36:04;5.55;;;2.40;;
72517;SDS011;60540;51.178;6.738;2023-07-24T09:38:30;5.93;;;2.28;;
72517;SDS011;60540;51.178;6.738;2023-07-24T09:40:56;5.25;;;2.50;;
72517;SDS011;60540;51.178;6.738;2023-07-24T09:43:23;6.07;;;2.47;;
72517;SDS011;60540;51.178;6.738;2023-07-24T09:45:50;7.78;;;2.70;;
72517;SDS011;60540;51.178;6.738;2023-07-24T09:48:16;4.75;;;2.22;;
72517;SDS011;60540;51.178;6.738;2023-07-24T09:50:44;4.80;;;2.10;;
72517;SDS011;60540;51.178;6.738;2023-07-24T09:55:47;5.35;;;2.15;;
72517;SDS011;60540;51.178;6.738;2023-07-24T09:58:17;3.85;;;1.73;;
72517;SDS011;60540;51.178;6.738;2023-07-24T10:00:44;4.40;;;2.40;;
72517;SDS011;60540;51.178;6.738;2023-07-24T10:03:10;5.57;;;2.20;;
72517;SDS011;60540;51.178;6.738;2023-07-24T10:05:36;4.35;;;2.03;;
72517;SDS011;60540;51.178;6.738;2023-07-24T10:08:02;3.42;;;1.65;;
72517;SDS011;60540;51.178;6.738;2023-07-24T10:10:28;4.82;;;2.10;;
72517;SDS011;60540;51.178;6.738;2023-07-24T10:12:57;4.55;;;1.85;;
72517;SDS011;60540;51.178;6.738;2023-07-24T10:15:23;4.40;;;1.83;;
72517;SDS011;60540;51.178;6.738;2023-07-24T10:17:50;4.18;;;1.83;;
72517;SDS011;60540;51.178;6.738;2023-07-24T10:20:32;5.72;;;2.08;;
72517;SDS011;60540;51.178;6.738;2023-07-24T10:23:00;4.05;;;1.92;;
72517;SDS011;60540;51.178;6.738;2023-07-24T10:25:30;4.30;;;2.63;;
72517;SDS011;60540;51.178;6.738;2023-07-24T10:28:10;3.00;;;1.65;;
72517;SDS011;60540;51.178;6.738;2023-07-24T10:30:37;4.55;;;1.83;;
72517;SDS011;60540;51.178;6.738;2023-07-24T10:33:21;3.85;;;1.60;;
72517;SDS011;60540;51.178;6.738;2023-07-24T10:35:49;6.53;;;2.22;;
72517;SDS011;60540;51.178;6.738;2023-07-24T10:38:18;4.10;;;1.80;;
72517;SDS011;60540;51.178;6.738;2023-07-24T10:40:44;5.38;;;2.00;;
72517;SDS011;60540;51.178;6.738;2023-07-24T10:43:14;4.30;;;1.70;;
72517;SDS011;60540;51.178;6.738;2023-07-24T10:45:47;4.75;;;2.10;;
72517;SDS011;60540;51.178;6.738;2023-07-24T10:48:14;5.28;;;1.92;;
72517;SDS011;60540;51.178;6.738;2023-07-24T10:50:42;4.70;;;2.05;;
72517;SDS011;60540;51.178;6.738;2023-07-24T10:53:09;4.28;;;1.90;;
72517;SDS011;60540;51.178;6.738;2023-07-24T10:55:35;4.45;;;1.70;;
72517;SDS011;60540;51.178;6.738;2023-07-24T10:58:01;3.85;;;1.95;;
72517;SDS011;60540;51.178;6.738;2023-07-24T11:00:27;5.80;;;1.95;;
72517;SDS011;60540;51.178;6.738;2023-07-24T11:02:53;4.20;;;1.98;;
72517;SDS011;60540;51.178;6.738;2023-07-24T11:05:23;5.78;;;2.03;;
72517;SDS011;60540;51.178;6.738;2023-07-24T11:07:49;3.50;;;1.90;;
72517;SDS011;60540;51.178;6.738;2023-07-24T11:10:18;3.50;;;1.42;;
72517;SDS011;60540;51.178;6.738;2023-07-24T11:12:44;4.47;;;1.70;;
72517;SDS011;60540;51.178;6.738;2023-07-24T11:15:11;5.00;;;1.90;;
72517;SDS011;60540;51.178;6.738;2023-07-24T11:17:38;4.40;;;1.80;;
72517;SDS011;60540;51.178;6.738;2023-07-24T11:22:34;3.58;;;1.80;;
72517;SDS011;60540;51.178;6.738;2023-07-24T11:25:00;4.78;;;1.85;;
72517;SDS011;60540;51.178;6.738;2023-07-24T11:27:26;3.55;;;1.60;;
72517;SDS011;60540;51.178;6.738;2023-07-24T11:29:52;4.10;;;1.83;;
72517;SDS011;60540;51.178;6.738;2023-07-24T11:32:18;5.05;;;2.20;;
72517;SDS011;60540;51.178;6.738;2023-07-24T11:34:50;3.90;;;1.40;;
72517;SDS011;60540;51.178;6.738;2023-07-24T11:37:16;4.35;;;1.30;;
72517;SDS011;60540;51.178;6.738;2023-07-24T11:39:54;5.78;;;2.40;;
72517;SDS011;60540;51.178;6.738;2023-07-24T11:42:27;5.18;;;1.55;;
72517;SDS011;60540;51.178;6.738;2023-07-24T11:44:53;4.68;;;1.60;;
72517;SDS011;60540;51.178;6.738;2023-07-24T11:47:19;4.10;;;1.40;;
72517;SDS011;60540;51.178;6.738;2023-07-24T11:49:45;4.47;;;1.33;;
72517;SDS011;60540;51.178;6.738;2023-07-24T11:52:21;3.25;;;1.30;;
72517;SDS011;60540;51.178;6.738;2023-07-24T11:54:55;5.55;;;1.65;;
72517;SDS011;60540;51.178;6.738;2023-07-24T11:57:26;3.65;;;1.20;;
72517;SDS011;60540;51.178;6.738;2023-07-24T11:59:53;3.00;;;1.10;;
72517;SDS011;60540;51.178;6.738;2023-07-24T12:02:19;4.10;;;1.33;;
72517;SDS011;60540;51.178;6.738;2023-07-24T12:04:45;2.83;;;1.30;;
72517;SDS011;60540;51.178;6.738;2023-07-24T12:07:10;3.08;;;1.27;;
72517;SDS011;60540;51.178;6.738;2023-07-24T12:09:36;4.97;;;1.40;;
72517;SDS011;60540;51.178;6.738;2023-07-24T12:12:03;3.83;;;1.30;;
72517;SDS011;60540;51.178;6.738;2023-07-24T12:14:30;3.30;;;1.52;;
72517;SDS011;60540;51.178;6.738;2023-07-24T12:17:01;3.45;;;1.30;;
72517;SDS011;60540;51.178;6.738;2023-07-24T12:19:28;4.35;;;1.70;;
72517;SDS011;60540;51.178;6.738;2023-07-24T12:21:54;4.10;;;1.20;;
72517;SDS011;60540;51.178;6.738;2023-07-24T12:24:20;3.75;;;1.27;;
72517;SDS011;60540;51.178;6.738;2023-07-24T12:26:45;3.15;;;1.33;;
72517;SDS011;60540;51.178;6.738;2023-07-24T12:29:11;1.88;;;1.10;;
72517;SDS011;60540;51.178;6.738;2023-07-24T12:31:37;3.30;;;1.10;;
72517;SDS011;60540;51.178;6.738;2023-07-24T12:34:03;2.35;;;1.10;;
72517;SDS011;60540;51.178;6.738;2023-07-24T12:36:28;2.67;;;1.00;;
72517;SDS011;60540;51.178;6.738;2023-07-24T12:38:54;2.83;;;1.20;;
72517;SDS011;60540;51.178;6.738;2023-07-24T12:41:20;3.20;;;1.10;;
72517;SDS011;60540;51.178;6.738;2023-07-24T12:43:46;2.92;;;1.10;;
72517;SDS011;60540;51.178;6.738;2023-07-24T12:46:11;4.03;;;1.20;;
72517;SDS011;60540;51.178;6.738;2023-07-24T12:48:37;3.58;;;1.45;;
72517;SDS011;60540;51.178;6.738;2023-07-24T12:51:03;2.65;;;0.90;;
72517;SDS011;60540;51.178;6.738;2023-07-24T12:53:29;4.80;;;1.35;;
72517;SDS011;60540;51.178;6.738;2023-07-24T12:55:54;2.50;;;1.10;;
72517;SDS011;60540;51.178;6.738;2023-07-24T12:58:20;4.32;;;1.30;;
72517;SDS011;60540;51.178;6.738;2023-07-24T13:00:46;2.58;;;1.15;;
72517;SDS011;60540;51.178;6.738;2023-07-24T13:03:12;2.50;;;1.10;;
72517;SDS011;60540;51.178;6.738;2023-07-24T13:05:37;2.95;;;1.10;;
72517;SDS011;60540;51.178;6.738;2023-07-24T13:08:04;2.67;;;1.20;;
72517;SDS011;60540;51.178;6.738;2023-07-24T13:10:29;3.17;;;1.23;;
72517;SDS011;60540;51.178;6.738;2023-07-24T13:12:55;3.92;;;1.33;;
72517;SDS011;60540;51.178;6.738;2023-07-24T13:15:21;3.28;;;1.30;;
72517;SDS011;60540;51.178;6.738;2023-07-24T13:17:47;3.45;;;1.17;;
72517;SDS011;60540;51.178;6.738;2023-07-24T13:20:13;2.85;;;1.17;;
72517;SDS011;60540;51.178;6.738;2023-07-24T13:22:39;2.75;;;1.48;;
72517;SDS011;60540;51.178;6.738;2023-07-24T13:25:05;2.53;;;1.15;;
72517;SDS011;60540;51.178;6.738;2023-07-24T13:27:32;2.97;;;1.30;;
72517;SDS011;60540;51.178;6.738;2023-07-24T13:29:57;2.40;;;1.20;;
72517;SDS011;60540;51.178;6.738;2023-07-24T13:32:24;3.40;;;1.48;;
72517;SDS011;60540;51.178;6.738;2023-07-24T13:34:49;2.28;;;0.95;;
72517;SDS011;60540;51.178;6.738;2023-07-24T13:37:15;2.35;;;1.10;;
72517;SDS011;60540;51.178;6.738;2023-07-24T13:39:41;2.50;;;1.23;;
72517;SDS011;60540;51.178;6.738;2023-07-24T13:42:07;3.03;;;1.20;;
72517;SDS011;60540;51.178;6.738;2023-07-24T13:44:32;2.33;;;0.93;;
72517;SDS011;60540;51.178;6.738;2023-07-24T13:46:58;3.05;;;1.20;;
72517;SDS011;60540;51.178;6.738;2023-07-24T13:49:24;3.10;;;1.10;;
72517;SDS011;60540;51.178;6.738;2023-07-24T13:51:50;2.58;;;1.00;;
72517;SDS011;60540;51.178;6.738;2023-07-24T13:54:15;2.65;;;1.08;;
72517;SDS011;60540;51.178;6.738;2023-07-24T13:56:41;3.08;;;1.17;;
72517;SDS011;60540;51.178;6.738;2023-07-24T13:59:07;2.30;;;0.93;;
72517;SDS011;60540;51.178;6.738;2023-07-24T14:01:32;2.22;;;1.05;;
72517;SDS011;60540;51.178;6.738;2023-07-24T14:03:58;1.98;;;0.93;;
72517;SDS011;60540;51.178;6.738;2023-07-24T14:06:25;2.42;;;1.23;;
72517;SDS011;60540;51.178;6.738;2023-07-24T14:08:51;2.83;;;1.13;;
72517;SDS011;60540;51.178;6.738;2023-07-24T14:11:17;2.30;;;1.00;;
72517;SDS011;60540;51.178;6.738;2023-07-24T14:13:42;2.05;;;1.10;;
72517;SDS011;60540;51.178;6.738;2023-07-24T14:16:10;2.10;;;1.05;;
72517;SDS011;60540;51.178;6.738;2023-07-24T14:18:36;1.77;;;0.90;;
72517;SDS011;60540;51.178;6.738;2023-07-24T14:21:02;2.40;;;0.80;;
72517;SDS011;60540;51.178;6.738;2023-07-24T14:23:28;1.48;;;0.80;;
72517;SDS011;60540;51.178;6.738;2023-07-24T14:25:54;2.28;;;1.00;;
72517;SDS011;60540;51.178;6.738;2023-07-24T14:28:19;1.58;;;0.90;;
72517;SDS011;60540;51.178;6.738;2023-07-24T14:30:45;1.95;;;1.00;;
72517;SDS011;60540;51.178;6.738;2023-07-24T14:33:11;2.55;;;1.20;;
72517;SDS011;60540;51.178;6.738;2023-07-24T14:35:37;2.58;;;1.27;;
72517;SDS011;60540;51.178;6.738;2023-07-24T14:38:02;1.90;;;1.00;;
72517;SDS011;60540;51.178;6.738;2023-07-24T14:40:28;3.22;;;1.00;;
72517;SDS011;60540;51.178;6.738;2023-07-24T14:42:54;2.28;;;1.05;;
72517;SDS011;60540;51.178;6.738;2023-07-24T14:45:20;2.38;;;0.90;;
72517;SDS011;60540;51.178;6.738;2023-07-24T14:47:45;3.10;;;1.35;;
72517;SDS011;60540;51.178;6.738;2023-07-24T14:50:11;2.80;;;1.40;;
72517;SDS011;60540;51.178;6.738;2023-07-24T14:52:37;2.58;;;1.02;;
72517;SDS011;60540;51.178;6.738;2023-07-24T14:55:03;2.55;;;1.20;;
72517;SDS011;60540;51.178;6.738;2023-07-24T14:57:30;3.45;;;1.30;;